Time;durP1;ratioP1;P1;durP2;ratioP2;P2;SDS_P1;SDS_P2;PMS_P1;PMS_P2;Temp;Humidity;BMP_temperature;BMP_pressure;BME280_temperature;BME280_humidity;BME280_pressure;Samples;Min_cycle;Max_cycle;Signal;HPM_P1;HPM_P2
2022/10/04 00:01:30;;;;;;;15.13;7.43;;;11.80;99.90;;;;;;5079152;28;20074;-64
2022/10/04 00:04:15;;;;;;;20.38;8.30;;;11.90;99.90;;;;;;5061737;28;20043;-64
2022/10/04 00:06:49;;;;;;;16.75;7.45;;;11.90;99.90;;;;;;5072291;28;20040;-64
2022/10/04 00:09:22;;;;;;;17.15;8.48;;;11.90;99.90;;;;;;5075946;28;20106;-64
2022/10/04 00:11:49;;;;;;;18.50;9.23;;;11.80;99.90;;;;;;5079606;28;20226;-64
2022/10/04 00:14:27;;;;;;;22.30;7.53;;;11.90;99.90;;;;;;5083286;28;20127;-64
2022/10/04 00:16:53;;;;;;;16.92;8.18;;;11.90;99.90;;;;;;5084020;28;20047;-64
2022/10/04 00:19:19;;;;;;;18.48;9.18;;;11.90;99.90;;;;;;5081712;28;20089;-64
2022/10/04 00:21:56;;;;;;;15.30;9.23;;;11.90;99.90;;;;;;5083142;28;20310;-64
2022/10/04 00:24:27;;;;;;;15.35;8.65;;;11.80;99.90;;;;;;5063296;28;20040;-64
2022/10/04 00:27:26;;;;;;;18.08;9.18;;;11.80;99.90;;;;;;5081589;28;20032;-64
2022/10/04 00:30:00;;;;;;;20.20;8.82;;;11.80;99.90;;;;;;5013326;28;20051;-64
2022/10/04 00:32:38;;;;;;;15.48;8.40;;;11.80;99.90;;;;;;5080705;28;20036;-64
2022/10/04 00:35:24;;;;;;;15.82;8.82;;;11.70;99.90;;;;;;5080033;28;20114;-64
2022/10/04 00:38:00;;;;;;;20.85;10.00;;;11.70;99.90;;;;;;5063212;28;20126;-64
2022/10/04 00:40:32;;;;;;;18.17;9.85;;;11.80;99.90;;;;;;5083116;28;20047;-64
2022/10/04 00:43:03;;;;;;;14.27;9.05;;;11.70;99.90;;;;;;5079781;28;20138;-64
2022/10/04 00:45:44;;;;;;;21.98;10.27;;;11.70;99.90;;;;;;5067392;28;20123;-64
2022/10/04 00:48:33;;;;;;;25.15;9.98;;;11.70;99.90;;;;;;5085654;28;20088;-64
2022/10/04 00:51:07;;;;;;;14.32;9.13;;;11.70;99.90;;;;;;5082810;28;20571;-64
2022/10/04 00:53:45;;;;;;;15.38;9.35;;;11.70;99.90;;;;;;5084788;28;20032;-64
2022/10/04 00:56:17;;;;;;;17.95;9.95;;;11.80;99.90;;;;;;5079171;28;20045;-64
2022/10/04 00:59:01;;;;;;;20.83;9.95;;;11.70;99.90;;;;;;5083429;28;20048;-64
2022/10/04 01:01:28;;;;;;;19.65;10.10;;;11.70;99.90;;;;;;5064046;28;20196;-64
2022/10/04 01:03:56;;;;;;;16.88;9.75;;;11.70;99.90;;;;;;5064329;28;20045;-64
2022/10/04 01:06:22;;;;;;;18.42;10.60;;;11.70;99.90;;;;;;5079688;28;20032;-64
2022/10/04 01:09:02;;;;;;;18.35;10.07;;;11.70;99.90;;;;;;5063859;28;20052;-64
2022/10/04 01:11:34;;;;;;;16.33;9.75;;;11.70;99.90;;;;;;5082315;28;20098;-64
2022/10/04 01:14:25;;;;;;;22.38;10.18;;;11.70;99.90;;;;;;5087572;28;20039;-63
2022/10/04 01:16:50;;;;;;;;;;;11.70;99.90;;;;;;5078662;28;20044;-64
2022/10/04 01:19:25;;;;;;;18.98;9.93;;;11.60;99.90;;;;;;5080725;28;19938;-64
2022/10/04 01:22:13;;;;;;;18.33;9.85;;;11.60;99.90;;;;;;5068281;28;20093;-64
2022/10/04 01:24:41;;;;;;;20.55;10.27;;;11.60;99.90;;;;;;5082729;28;20055;-64
2022/10/04 01:27:38;;;;;;;24.73;10.18;;;11.60;99.90;;;;;;5064131;28;20040;-64
2022/10/04 01:30:08;;;;;;;18.58;9.32;;;11.60;99.90;;;;;;5056405;28;20039;-64
2022/10/04 01:32:35;;;;;;;21.80;10.93;;;11.50;99.90;;;;;;5066687;28;20067;-64
2022/10/04 01:35:01;;;;;;;25.75;9.75;;;11.50;99.90;;;;;;5083004;28;20078;-64
2022/10/04 01:37:27;;;;;;;18.42;9.93;;;11.50;99.90;;;;;;5079553;28;20060;-64
2022/10/04 01:39:53;;;;;;;17.58;9.70;;;11.50;99.90;;;;;;5083886;28;20479;-64
2022/10/04 01:42:29;;;;;;;16.67;9.52;;;11.60;99.90;;;;;;5081433;28;20040;-64
2022/10/04 01:45:11;;;;;;;19.77;10.50;;;11.50;99.90;;;;;;5084923;28;20044;-65
2022/10/04 01:47:45;;;;;;;20.63;10.50;;;11.60;99.90;;;;;;5085743;28;20047;-64
2022/10/04 01:50:18;;;;;;;19.52;9.65;;;11.50;99.90;;;;;;5083737;28;20118;-64
2022/10/04 01:52:49;;;;;;;18.88;9.98;;;11.50;99.90;;;;;;5081624;28;20039;-64
2022/10/04 01:55:27;;;;;;;15.68;9.50;;;11.50;99.90;;;;;;5083223;28;20205;-64
2022/10/04 01:58:20;;;;;;;20.40;10.52;;;11.50;99.90;;;;;;5064391;28;20062;-65
2022/10/04 02:00:56;;;;;;;17.63;9.55;;;11.50;99.90;;;;;;5064755;28;20055;-64
2022/10/04 02:03:27;;;;;;;18.67;9.95;;;11.40;99.90;;;;;;5089503;28;20071;-64
2022/10/04 02:05:58;;;;;;;16.42;9.90;;;11.40;99.90;;;;;;5085602;28;22433;-64
2022/10/04 02:08:31;;;;;;;19.40;10.27;;;11.40;99.90;;;;;;5086877;28;20085;-64
2022/10/04 02:10:59;;;;;;;20.02;10.85;;;11.50;99.90;;;;;;5063752;28;20032;-65
2022/10/04 02:13:31;;;;;;;21.48;10.85;;;11.50;99.90;;;;;;5046656;28;20117;-64
2022/10/04 02:15:58;;;;;;;15.90;9.90;;;11.50;99.90;;;;;;5082466;28;20047;-64
2022/10/04 02:18:25;;;;;;;21.33;10.98;;;11.60;99.90;;;;;;5081856;28;20071;-64
2022/10/04 02:20:52;;;;;;;19.10;9.85;;;11.50;99.90;;;;;;5085690;28;20031;-64
2022/10/04 02:23:19;;;;;;;18.75;10.82;;;11.50;99.90;;;;;;5085366;28;20047;-64
2022/10/04 02:25:45;;;;;;;18.15;10.68;;;11.50;99.90;;;;;;5085460;28;20429;-64
2022/10/04 02:28:12;;;;;;;18.75;10.80;;;11.60;99.90;;;;;;5064527;28;20071;-63
2022/10/04 02:30:42;;;;;;;18.80;9.35;;;11.60;99.90;;;;;;5086857;28;20383;-64
2022/10/04 02:33:09;;;;;;;21.87;10.40;;;11.60;99.90;;;;;;5067610;28;20046;-64
2022/10/04 02:35:53;;;;;;;18.55;10.13;;;11.50;99.90;;;;;;5068680;28;20717;-64
2022/10/04 02:38:24;;;;;;;17.58;9.32;;;11.40;99.90;;;;;;5082022;28;20070;-64
2022/10/04 02:40:56;;;;;;;25.02;10.57;;;11.40;99.90;;;;;;5067387;28;20399;-64
2022/10/04 02:43:29;;;;;;;19.05;9.60;;;11.30;99.90;;;;;;5080664;28;20040;-64
2022/10/04 02:46:08;;;;;;;17.70;9.65;;;11.20;99.90;;;;;;5088247;28;20467;-64
2022/10/04 02:48:48;;;;;;;20.57;9.83;;;11.20;99.90;;;;;;5088931;28;20040;-64
2022/10/04 02:51:37;;;;;;;16.90;9.97;;;11.20;99.90;;;;;;5040783;28;20119;-64
2022/10/04 02:54:27;;;;;;;19.45;9.85;;;11.10;99.90;;;;;;5088680;28;20048;-64
2022/10/04 02:56:54;;;;;;;16.67;10.27;;;11.10;99.90;;;;;;5086417;28;20048;-64
2022/10/04 02:59:21;;;;;;;22.08;10.23;;;11.00;99.90;;;;;;5069437;28;20078;-64
2022/10/04 03:02:00;;;;;;;18.25;9.95;;;10.90;99.90;;;;;;5066933;28;20054;-64
2022/10/04 03:04:30;;;;;;;17.60;9.40;;;10.90;99.90;;;;;;5082993;28;20048;-64
2022/10/04 03:06:58;;;;;;;15.38;9.68;;;10.90;99.90;;;;;;5051500;28;20031;-64
2022/10/04 03:09:25;;;;;;;18.70;10.32;;;10.90;99.90;;;;;;5086155;28;20036;-64
2022/10/04 03:11:51;;;;;;;18.52;10.15;;;10.90;99.90;;;;;;5062974;28;20047;-64
2022/10/04 03:14:23;;;;;;;19.25;10.52;;;10.90;99.90;;;;;;5087569;28;20046;-64
2022/10/04 03:16:53;;;;;;;21.80;10.82;;;11.00;99.90;;;;;;5085641;28;20070;-64
2022/10/04 03:19:21;;;;;;;24.02;10.95;;;11.00;99.90;;;;;;5066226;28;20261;-64
2022/10/04 03:21:50;;;;;;;23.48;11.00;;;11.00;99.90;;;;;;5063090;28;20047;-65
2022/10/04 03:24:31;;;;;;;20.08;11.02;;;11.00;99.90;;;;;;5086178;28;20044;-62
2022/10/04 03:27:01;;;;;;;21.58;10.65;;;11.00;99.90;;;;;;5080398;28;20044;-63
2022/10/04 03:29:30;;;;;;;21.45;10.50;;;11.00;99.90;;;;;;5067052;28;20044;-63
2022/10/04 03:31:57;;;;;;;22.90;10.95;;;11.10;99.90;;;;;;5067786;28;20566;-62
2022/10/04 03:34:26;;;;;;;19.45;10.82;;;11.00;99.90;;;;;;5067017;28;20113;-63
2022/10/04 03:36:55;;;;;;;20.58;11.05;;;11.00;99.90;;;;;;5079358;28;20127;-62
2022/10/04 03:39:42;;;;;;;17.40;10.43;;;11.00;99.90;;;;;;5088895;28;20040;-63
2022/10/04 03:42:20;;;;;;;17.20;11.38;;;11.00;99.90;;;;;;5053999;28;20464;-62
2022/10/04 03:44:47;;;;;;;20.40;10.23;;;11.00;99.90;;;;;;5080868;28;20037;-62
2022/10/04 03:47:20;;;;;;;16.58;10.23;;;11.00;99.90;;;;;;5082107;28;20040;-63
2022/10/04 03:49:47;;;;;;;20.27;11.02;;;11.00;99.90;;;;;;5066798;28;20464;-63
2022/10/04 03:52:22;;;;;;;19.45;11.00;;;11.00;99.90;;;;;;5080701;28;20023;-63
2022/10/04 03:54:51;;;;;;;22.58;11.82;;;11.00;99.90;;;;;;5078031;28;20143;-62
2022/10/04 03:57:17;;;;;;;18.45;11.77;;;11.00;99.90;;;;;;5082967;28;21383;-63
2022/10/04 03:59:43;;;;;;;16.67;10.38;;;11.00;99.90;;;;;;5085648;28;20048;-63
2022/10/04 04:02:34;;;;;;;20.75;11.68;;;11.00;99.90;;;;;;5064963;28;20036;-63
2022/10/04 04:05:15;;;;;;;22.80;11.65;;;11.00;99.90;;;;;;5085256;28;20040;-63
2022/10/04 04:07:46;;;;;;;17.40;10.88;;;11.00;99.90;;;;;;5077627;28;20051;-62
2022/10/04 04:10:23;;;;;;;23.20;11.98;;;10.90;99.90;;;;;;5083642;28;20218;-63
2022/10/04 04:12:54;;;;;;;23.75;12.15;;;10.90;99.90;;;;;;5083118;28;20059;-62
2022/10/04 04:15:20;;;;;;;26.00;12.13;;;10.90;99.90;;;;;;5064123;28;20101;-62
2022/10/04 04:17:48;;;;;;;18.80;11.65;;;10.90;99.90;;;;;;5083596;28;20044;-63
2022/10/04 04:20:35;;;;;;;22.90;12.68;;;10.90;99.90;;;;;;5069292;28;20319;-63
2022/10/04 04:23:13;;;;;;;23.67;11.95;;;10.90;99.90;;;;;;5086214;28;20432;-62
2022/10/04 04:25:44;;;;;;;23.30;11.10;;;10.90;99.90;;;;;;5084281;28;20139;-63
2022/10/04 04:28:23;;;;;;;20.70;12.02;;;10.90;99.90;;;;;;5081236;28;20578;-62
2022/10/04 04:30:57;;;;;;;21.65;11.90;;;10.90;99.90;;;;;;5069792;28;20077;-63
2022/10/04 04:33:31;;;;;;;23.65;12.68;;;10.90;99.90;;;;;;5081783;28;20115;-63
2022/10/04 04:36:04;;;;;;;26.10;13.30;;;10.90;99.90;;;;;;5065944;28;20032;-62
2022/10/04 04:38:30;;;;;;;22.05;13.68;;;11.00;99.90;;;;;;5082065;28;20078;-67
2022/10/04 04:40:56;;;;;;;27.40;13.25;;;10.90;99.90;;;;;;5084505;28;20152;-63
2022/10/04 04:43:27;;;;;;;26.88;13.02;;;11.00;99.90;;;;;;5062092;28;20173;-62
2022/10/04 04:45:54;;;;;;;19.65;13.13;;;10.90;99.90;;;;;;5080436;28;20117;-62
2022/10/04 04:48:21;;;;;;;24.50;14.02;;;10.90;99.90;;;;;;5087721;28;20035;-63
2022/10/04 04:50:52;;;;;;;25.65;13.65;;;10.90;99.90;;;;;;5086537;28;20432;-63
2022/10/04 04:53:27;;;;;;;23.88;13.45;;;10.90;99.90;;;;;;5086124;28;20770;-63
2022/10/04 04:55:59;;;;;;;26.70;14.52;;;10.80;99.90;;;;;;5066199;28;21052;-62
2022/10/04 04:58:45;;;;;;;21.45;13.32;;;10.70;99.90;;;;;;5081419;28;20059;-63
2022/10/04 05:01:34;;;;;;;24.50;13.57;;;10.70;99.90;;;;;;5086151;28;20377;-63
2022/10/04 05:04:04;;;;;;;22.42;14.02;;;10.60;99.90;;;;;;5086808;28;20036;-62
2022/10/04 05:06:32;;;;;;;23.30;14.07;;;10.60;99.90;;;;;;5073817;28;20047;-63
2022/10/04 05:08:58;;;;;;;26.27;14.82;;;10.50;99.90;;;;;;5065122;28;20043;-62
2022/10/04 05:11:31;;;;;;;27.08;13.95;;;10.50;99.90;;;;;;5083008;28;20382;-63
2022/10/04 05:14:11;;;;;;;26.02;15.43;;;10.50;99.90;;;;;;5083379;28;20561;-63
2022/10/04 05:16:39;;;;;;;25.47;14.97;;;10.50;99.90;;;;;;5085657;28;20055;-63
2022/10/04 05:19:12;;;;;;;23.73;15.07;;;10.40;99.90;;;;;;5080970;28;20054;-63
2022/10/04 05:21:44;;;;;;;26.63;15.65;;;10.40;99.90;;;;;;5083411;28;20424;-63
2022/10/04 05:24:26;;;;;;;28.17;15.90;;;10.40;99.90;;;;;;5083166;28;20044;-63
2022/10/04 05:26:57;;;;;;;28.20;15.60;;;10.40;99.90;;;;;;5079381;28;22765;-63
2022/10/04 05:29:27;;;;;;;24.77;14.95;;;10.40;99.90;;;;;;5082842;28;20040;-63
2022/10/04 05:32:20;;;;;;;29.23;15.70;;;10.40;99.90;;;;;;5083766;28;20044;-63
2022/10/04 05:34:48;;;;;;;32.05;16.27;;;10.40;99.90;;;;;;5083313;28;20107;-63
2022/10/04 05:37:41;;;;;;;28.48;14.77;;;10.40;99.90;;;;;;5086803;28;20116;-62
2022/10/04 05:40:30;;;;;;;32.60;16.30;;;10.40;99.90;;;;;;5089267;28;20044;-63
2022/10/04 05:42:58;;;;;;;32.67;15.20;;;10.30;99.90;;;;;;5079152;28;20036;-63
2022/10/04 05:45:27;;;;;;;26.15;15.75;;;10.30;99.90;;;;;;5084384;28;20036;-63
2022/10/04 05:47:55;;;;;;;33.97;17.17;;;10.30;99.90;;;;;;5063217;28;20123;-64
2022/10/04 05:50:34;;;;;;;31.30;16.83;;;10.30;99.90;;;;;;5086106;28;20024;-64
2022/10/04 05:53:22;;;;;;;29.47;17.37;;;10.30;99.90;;;;;;5081333;28;20242;-63
2022/10/04 05:55:54;;;;;;;27.48;16.25;;;10.30;99.90;;;;;;5062477;28;20113;-63
2022/10/04 05:58:51;;;;;;;28.95;16.90;;;10.30;99.90;;;;;;5063806;28;20040;-63
2022/10/04 06:01:23;;;;;;;29.70;17.08;;;10.30;99.90;;;;;;5082206;28;20119;-62
2022/10/04 06:04:19;;;;;;;35.17;18.15;;;10.30;99.90;;;;;;5082464;28;20158;-63
2022/10/04 06:06:57;;;;;;;29.63;17.73;;;10.30;99.90;;;;;;5060587;28;20045;-63
2022/10/04 06:09:58;;;;;;;33.85;17.73;;;10.30;99.90;;;;;;5067566;28;20130;-63
2022/10/04 06:12:36;;;;;;;;;;;10.30;99.90;;;;;;5063627;28;20101;-63
2022/10/04 06:15:21;;;;;;;27.48;16.65;;;10.30;99.90;;;;;;5083107;28;19981;-64
2022/10/04 06:18:15;;;;;;;29.00;17.48;;;10.30;99.90;;;;;;5071330;28;20479;-62
2022/10/04 06:21:13;;;;;;;29.15;17.58;;;10.30;99.90;;;;;;5084538;28;20052;-63
2022/10/04 06:23:57;;;;;;;31.98;16.73;;;10.30;99.90;;;;;;5086313;28;20041;-63
2022/10/04 06:26:51;;;;;;;29.30;17.50;;;10.30;99.90;;;;;;5066492;28;20047;-62
2022/10/04 06:29:24;;;;;;;31.10;17.48;;;10.30;99.90;;;;;;5087371;28;20051;-64
2022/10/04 06:32:07;;;;;;;27.33;17.67;;;10.40;99.90;;;;;;5055564;28;20055;-63
2022/10/04 06:35:03;;;;;;;28.40;16.95;;;10.40;99.90;;;;;;5041419;28;20048;-63
2022/10/04 06:37:32;;;;;;;25.30;16.60;;;10.40;99.90;;;;;;5080726;28;20107;-63
2022/10/04 06:40:00;;;;;;;30.20;17.45;;;10.40;99.90;;;;;;5070016;28;20361;-63
2022/10/04 06:42:48;;;;;;;28.98;17.45;;;10.50;99.90;;;;;;5083360;28;20048;-62
2022/10/04 06:45:28;;;;;;;26.48;16.52;;;10.60;99.90;;;;;;5082293;28;20044;-64
2022/10/04 06:48:24;;;;;;;25.95;16.52;;;10.60;99.90;;;;;;5070365;28;20134;-62
2022/10/04 06:51:28;;;;;;;29.70;16.75;;;10.70;99.90;;;;;;5085707;28;20052;-63
2022/10/04 06:54:16;;;;;;;32.00;16.58;;;10.80;99.90;;;;;;5075322;28;20072;-62
2022/10/04 06:56:47;;;;;;;28.17;16.60;;;11.00;99.90;;;;;;5080619;28;20072;-63
2022/10/04 06:59:30;;;;;;;26.33;15.48;;;11.20;99.90;;;;;;5081019;28;20115;-63
2022/10/04 07:02:01;;;;;;;27.10;16.00;;;11.40;99.90;;;;;;5081888;28;20036;-63
2022/10/04 07:04:35;;;;;;;24.17;15.25;;;11.50;99.90;;;;;;5081706;28;20067;-63
2022/10/04 07:07:26;;;;;;;23.92;15.27;;;11.70;99.90;;;;;;5058259;28;20119;-64
2022/10/04 07:10:24;;;;;;;21.75;14.85;;;12.00;99.90;;;;;;5078100;28;20123;-63
2022/10/04 07:13:02;;;;;;;22.80;14.55;;;12.10;99.90;;;;;;5056087;28;20066;-63
2022/10/04 07:15:40;;;;;;;21.73;15.07;;;12.30;99.90;;;;;;5082682;28;20441;-63
2022/10/04 07:18:14;;;;;;;20.08;13.00;;;12.50;99.90;;;;;;5068518;28;20044;-64
2022/10/04 07:20:40;;;;;;;16.50;12.70;;;12.80;99.90;;;;;;5089360;28;20223;-63
2022/10/04 07:23:21;;;;;;;22.42;13.23;;;12.80;99.90;;;;;;5085698;28;20135;-63
2022/10/04 07:25:53;;;;;;;16.98;12.98;;;13.20;99.90;;;;;;5082769;28;20112;-63
2022/10/04 07:31:33;;;;;;;17.60;12.88;;;13.70;99.90;;;;;;5087978;28;20062;-63
2022/10/04 07:34:02;;;;;;;17.20;11.75;;;13.90;99.90;;;;;;5065953;28;20040;-63
2022/10/04 07:36:40;;;;;;;19.35;11.88;;;13.70;99.90;;;;;;5088276;28;20036;-63
2022/10/04 07:39:19;;;;;;;16.98;12.00;;;14.00;99.90;;;;;;5069343;28;20032;-62
2022/10/04 07:41:55;;;;;;;16.90;10.40;;;13.90;99.90;;;;;;5081120;28;20095;-63
2022/10/04 07:44:39;;;;;;;20.83;11.80;;;14.00;99.90;;;;;;5069573;28;20150;-63
2022/10/04 07:47:25;;;;;;;14.50;10.40;;;13.70;99.90;;;;;;5083261;28;20098;-63
2022/10/04 07:49:52;;;;;;;16.60;11.52;;;13.70;99.90;;;;;;5069650;28;20101;-64
2022/10/04 07:52:42;;;;;;;20.02;11.55;;;13.50;99.90;;;;;;5078398;28;20040;-63
2022/10/04 07:55:25;;;;;;;19.88;12.32;;;13.60;99.90;;;;;;5070217;28;20067;-63
2022/10/04 07:58:22;;;;;;;16.42;11.23;;;13.60;99.90;;;;;;5073725;28;20060;-64
2022/10/04 08:01:09;;;;;;;22.27;12.38;;;13.50;99.90;;;;;;5073831;28;20140;-65
2022/10/04 08:04:06;;;;;;;19.08;12.32;;;13.60;99.90;;;;;;5077729;28;20043;-63
2022/10/04 08:06:32;;;;;;;15.25;11.10;;;14.00;99.90;;;;;;5084386;28;20047;-64
2022/10/04 08:09:25;;;;;;;18.67;11.43;;;13.90;99.90;;;;;;5085539;28;20035;-63
2022/10/04 08:12:16;;;;;;;18.65;12.40;;;14.10;99.90;;;;;;5080189;28;20044;-63
2022/10/04 08:15:07;;;;;;;21.80;12.05;;;14.00;99.90;;;;;;5069487;28;20047;-63
2022/10/04 08:17:58;;;;;;;21.52;12.02;;;14.00;99.90;;;;;;5068584;28;20661;-63
2022/10/04 08:20:30;;;;;;;19.63;11.75;;;13.80;99.90;;;;;;5084262;28;20055;-62
2022/10/04 08:23:14;;;;;;;16.73;11.10;;;14.00;99.90;;;;;;5084307;28;20036;-63
2022/10/04 08:25:45;;;;;;;16.58;11.20;;;14.20;99.90;;;;;;5079252;28;20067;-62
2022/10/04 08:31:38;;;;;;;18.58;11.18;;;14.20;99.90;;;;;;5087191;28;20460;-63
2022/10/04 08:34:42;;;;;;;15.63;10.80;;;14.50;99.90;;;;;;5088199;28;20131;-64
2022/10/04 08:37:20;;;;;;;19.92;12.27;;;14.40;99.90;;;;;;5081690;28;20043;-63
2022/10/04 08:40:25;;;;;;;18.45;10.30;;;14.40;99.90;;;;;;5061978;28;20055;-64
2022/10/04 08:43:12;;;;;;;16.58;9.93;;;14.20;99.90;;;;;;5048339;28;20130;-63
2022/10/04 08:45:56;;;;;;;18.08;9.52;;;14.10;99.90;;;;;;5083253;28;20121;-62
2022/10/04 08:48:37;;;;;;;12.38;9.35;;;14.20;99.90;;;;;;5071693;28;20363;-62
2022/10/04 08:51:06;;;;;;;17.35;9.80;;;14.20;99.90;;;;;;5083422;28;20040;-63
2022/10/04 08:53:47;;;;;;;15.45;9.68;;;14.30;99.90;;;;;;5078817;28;20054;-63
2022/10/04 08:56:34;;;;;;;17.27;9.32;;;14.40;99.90;;;;;;5070086;28;20128;-63
2022/10/04 08:59:19;;;;;;;21.27;10.23;;;14.60;99.90;;;;;;5041625;28;20063;-63
2022/10/04 09:02:08;;;;;;;16.85;9.30;;;14.50;99.90;;;;;;5073413;28;20094;-64
2022/10/04 09:04:45;;;;;;;15.50;9.60;;;14.60;99.90;;;;;;5080152;28;20047;-62
2022/10/04 09:07:26;;;;;;;16.95;9.18;;;14.70;99.90;;;;;;5077707;28;20040;-64
2022/10/04 09:10:01;;;;;;;;;;;14.80;99.90;;;;;;5086103;28;20467;-62
2022/10/04 09:13:13;;;;;;;15.75;8.07;;;14.90;99.90;;;;;;5062739;28;19923;-63
2022/10/04 09:15:52;;;;;;;16.50;8.68;;;15.00;99.90;;;;;;5021467;28;20052;-63
2022/10/04 09:18:32;;;;;;;11.77;7.88;;;15.10;99.90;;;;;;5083638;28;20119;-63
2022/10/04 09:21:13;;;;;;;11.20;7.75;;;15.00;99.90;;;;;;5084624;28;20104;-63
2022/10/04 09:24:11;;;;;;;13.85;7.85;;;15.00;99.90;;;;;;5079755;28;20036;-63
2022/10/04 09:27:26;;;;;;;12.18;7.15;;;15.10;99.90;;;;;;5085912;28;20129;-64
2022/10/04 09:29:54;;;;;;;12.07;6.63;;;15.20;99.90;;;;;;5064280;28;20040;-64
2022/10/04 09:32:37;;;;;;;12.65;7.68;;;15.40;99.90;;;;;;5074403;28;20051;-62
2022/10/04 09:35:25;;;;;;;16.77;6.93;;;15.40;99.90;;;;;;5070984;28;20040;-63
2022/10/04 09:38:21;;;;;;;11.35;7.15;;;15.40;99.90;;;;;;5061704;28;20056;-63
2022/10/04 09:41:12;;;;;;;11.38;6.93;;;15.40;99.90;;;;;;5069169;28;20052;-64
2022/10/04 09:44:16;;;;;;;10.27;6.50;;;15.50;99.90;;;;;;5081363;28;20490;-63
2022/10/04 09:47:00;;;;;;;14.10;6.63;;;15.60;99.90;;;;;;5068485;28;20047;-63
2022/10/04 09:49:58;;;;;;;12.02;7.10;;;15.60;99.90;;;;;;5059530;28;20384;-63
2022/10/04 09:53:06;;;;;;;11.25;6.78;;;15.60;99.90;;;;;;5074728;28;20056;-63
2022/10/04 09:55:49;;;;;;;12.40;6.93;;;15.70;99.90;;;;;;5035511;28;20700;-63
2022/10/04 09:58:28;;;;;;;11.18;6.07;;;15.60;99.90;;;;;;5082426;28;20044;-63
2022/10/04 10:01:13;;;;;;;14.05;7.03;;;15.70;99.90;;;;;;5083128;28;20526;-63
2022/10/04 10:03:55;;;;;;;11.77;6.50;;;15.80;99.90;;;;;;5059913;28;20097;-62
2022/10/04 10:06:30;;;;;;;11.32;6.90;;;15.90;99.90;;;;;;5084896;28;20044;-64
2022/10/04 10:13:38;;;;;;;10.32;6.63;;;15.90;99.90;;;;;;5085364;28;20158;-63
2022/10/04 10:15:54;;;;;;;15.15;7.07;;;16.00;99.90;;;;;;5085902;28;20052;-63
2022/10/04 10:18:39;;;;;;;10.10;6.50;;;16.10;99.90;;;;;;5088436;28;20556;-63
2022/10/04 10:21:19;;;;;;;13.38;7.60;;;16.20;99.90;;;;;;5087628;28;20041;-62
2022/10/04 10:24:14;;;;;;;10.85;6.53;;;16.20;99.90;;;;;;5065197;28;20044;-63
2022/10/04 10:26:55;;;;;;;13.52;6.22;;;16.30;99.90;;;;;;5034690;28;20437;-63
2022/10/04 10:29:27;;;;;;;10.40;6.25;;;16.30;99.90;;;;;;5079610;28;20036;-63
2022/10/04 10:32:14;;;;;;;11.45;5.65;;;16.30;99.90;;;;;;5063578;28;20084;-63
2022/10/04 10:35:20;;;;;;;9.52;5.32;;;16.40;99.90;;;;;;5065090;28;20067;-65
2022/10/04 10:38:01;;;;;;;12.57;6.15;;;16.40;99.90;;;;;;5078257;28;20131;-65
2022/10/04 10:41:00;;;;;;;8.93;6.10;;;16.50;99.90;;;;;;5080790;28;20032;-64
2022/10/04 10:43:45;;;;;;;12.25;6.20;;;16.40;99.90;;;;;;5082835;28;20032;-64
2022/10/04 10:46:37;;;;;;;11.32;5.68;;;16.50;99.90;;;;;;5082675;28;20036;-62
2022/10/04 10:49:28;;;;;;;13.10;5.85;;;16.60;99.90;;;;;;5060576;28;20047;-64
2022/10/04 10:52:24;;;;;;;7.82;5.00;;;16.60;99.90;;;;;;5080294;28;20491;-64
2022/10/04 10:54:59;;;;;;;13.23;5.75;;;16.60;99.90;;;;;;5067590;28;20079;-64
2022/10/04 10:57:24;;;;;;;10.93;5.50;;;16.60;99.90;;;;;;5080665;28;20495;-64
2022/10/04 11:00:17;;;;;;;8.45;5.75;;;16.60;99.90;;;;;;5083746;28;20120;-64
2022/10/04 11:03:05;;;;;;;13.60;5.65;;;16.60;99.90;;;;;;5069788;28;20460;-63
2022/10/04 11:05:56;;;;;;;9.25;6.05;;;16.70;99.90;;;;;;5086107;28;20062;-63
2022/10/04 11:08:43;;;;;;;10.02;5.55;;;16.80;99.90;;;;;;5081550;28;20127;-64
2022/10/04 11:11:43;;;;;;;9.93;6.10;;;16.80;99.90;;;;;;5079237;28;20324;-64
2022/10/04 11:14:35;;;;;;;11.90;5.25;;;16.70;99.90;;;;;;5082699;28;20123;-63
2022/10/04 11:17:29;;;;;;;11.35;5.57;;;16.80;99.90;;;;;;5087174;28;20031;-62
2022/10/04 11:20:06;;;;;;;8.57;5.30;;;16.70;99.90;;;;;;5089381;28;20447;-63
2022/10/04 11:23:06;;;;;;;10.30;5.50;;;16.90;99.90;;;;;;5087866;28;20059;-64
2022/10/04 11:25:59;;;;;;;11.50;5.85;;;16.90;99.90;;;;;;5090234;28;20395;-64
2022/10/04 11:28:47;;;;;;;11.07;6.85;;;16.90;99.90;;;;;;5084497;28;20471;-65
2022/10/04 11:31:29;;;;;;;11.90;6.25;;;16.90;99.90;;;;;;5061576;28;20044;-62
2022/10/04 11:34:34;;;;;;;10.02;5.30;;;16.90;99.90;;;;;;5069465;28;20063;-64
2022/10/04 11:37:30;;;;;;;7.63;4.70;;;17.00;99.90;;;;;;5043267;28;20040;-63
2022/10/04 11:39:58;;;;;;;6.55;4.20;;;17.10;99.90;;;;;;5090054;28;20040;-64
2022/10/04 11:43:00;;;;;;;8.75;4.30;;;17.00;99.90;;;;;;5084152;28;20064;-64
2022/10/04 11:46:03;;;;;;;8.27;4.55;;;17.10;99.90;;;;;;5088838;28;20074;-63
2022/10/04 11:48:42;;;;;;;7.88;4.40;;;17.20;99.90;;;;;;5068084;28;20044;-63
2022/10/04 11:51:25;;;;;;;8.23;4.33;;;17.30;99.90;;;;;;5085945;28;20116;-63
2022/10/04 11:54:06;;;;;;;9.68;4.47;;;17.30;99.90;;;;;;5068160;28;20139;-63
2022/10/04 11:56:55;;;;;;;8.02;3.85;;;17.30;99.90;;;;;;5062737;28;20070;-65
2022/10/04 11:59:47;;;;;;;8.43;4.60;;;17.40;99.10;;;;;;5088417;28;20116;-63
2022/10/04 12:02:27;;;;;;;7.55;3.95;;;17.50;99.90;;;;;;5085808;28;20044;-63
2022/10/04 12:05:19;;;;;;;7.53;3.95;;;17.40;99.30;;;;;;5086131;28;20071;-62
2022/10/04 12:08:38;;;;;;;8.75;3.83;;;17.30;99.10;;;;;;5068282;28;20051;-63
2022/10/04 12:11:12;;;;;;;9.07;4.13;;;17.30;98.90;;;;;;5025155;28;20076;-63
2022/10/04 12:13:46;;;;;;;7.57;4.00;;;17.30;99.90;;;;;;5066799;28;20128;-64
2022/10/04 12:16:36;;;;;;;8.60;3.40;;;17.30;99.60;;;;;;5076270;28;20563;-63
2022/10/04 12:19:42;;;;;;;11.18;3.67;;;17.30;97.40;;;;;;5066450;28;20375;-64
2022/10/04 12:22:19;;;;;;;8.40;3.53;;;17.40;98.80;;;;;;5087348;28;20067;-63
2022/10/04 12:25:18;;;;;;;9.38;3.67;;;17.40;97.70;;;;;;5091058;28;20502;-63
2022/10/04 12:28:10;;;;;;;10.35;4.88;;;17.40;98.20;;;;;;5082599;28;20040;-64
2022/10/04 12:30:45;;;;;;;7.45;3.53;;;17.50;98.50;;;;;;5067788;28;20040;-64
2022/10/04 12:33:21;;;;;;;8.68;4.20;;;17.50;98.90;;;;;;5090164;28;20112;-63
2022/10/04 12:35:53;;;;;;;7.15;3.90;;;17.60;98.60;;;;;;5085739;28;20048;-62
2022/10/04 12:38:48;;;;;;;8.35;4.70;;;17.60;98.40;;;;;;5085622;28;20116;-64
2022/10/04 12:41:29;;;;;;;11.15;5.05;;;17.70;98.20;;;;;;5082414;28;20032;-63
2022/10/04 12:44:23;;;;;;;9.80;4.93;;;17.70;98.50;;;;;;5050472;28;20520;-64
2022/10/04 12:47:26;;;;;;;7.80;4.60;;;17.80;97.90;;;;;;5048746;28;20056;-65
2022/10/04 12:50:12;;;;;;;10.90;4.55;;;17.80;97.90;;;;;;5076900;28;20033;-63
2022/10/04 12:52:56;;;;;;;9.35;4.70;;;17.70;97.10;;;;;;5086108;28;20473;-63
2022/10/04 12:55:45;;;;;;;7.80;4.30;;;17.80;97.80;;;;;;5055857;28;20052;-63
2022/10/04 12:58:22;;;;;;;7.53;4.65;;;17.90;98.10;;;;;;5061455;28;20149;-64
2022/10/04 13:00:51;;;;;;;9.10;5.15;;;17.90;96.60;;;;;;5085998;28;20044;-63
2022/10/04 13:03:29;;;;;;;8.35;5.00;;;17.90;97.70;;;;;;5076921;28;20040;-63
2022/10/04 13:06:04;;;;;;;10.75;5.15;;;17.80;97.90;;;;;;5084174;28;20045;-64
2022/10/04 13:09:08;;;;;;;8.73;4.78;;;17.80;97.90;;;;;;5064448;28;20063;-64
2022/10/04 13:12:13;;;;;;;10.10;4.75;;;17.80;97.30;;;;;;5077439;28;20036;-64
2022/10/04 13:15:11;;;;;;;9.48;4.97;;;17.60;96.60;;;;;;5082504;28;20982;-65
2022/10/04 13:17:54;;;;;;;10.25;4.75;;;17.50;97.70;;;;;;5070716;28;20048;-64
2022/10/04 13:20:56;;;;;;;8.57;4.32;;;17.40;97.30;;;;;;5087405;28;20096;-62
2022/10/04 13:23:34;;;;;;;6.80;4.78;;;17.40;97.10;;;;;;5077049;28;20040;-64
2022/10/04 13:26:14;;;;;;;8.35;5.07;;;17.30;97.40;;;;;;5086162;28;20097;-63
2022/10/04 13:29:15;;;;;;;9.10;4.40;;;17.20;98.40;;;;;;5054362;28;20494;-63
2022/10/04 13:32:09;;;;;;;8.05;4.38;;;17.10;98.50;;;;;;5059615;28;20620;-63
2022/10/04 13:34:52;;;;;;;9.80;5.25;;;17.10;98.50;;;;;;5076977;28;20044;-64
2022/10/04 13:37:52;;;;;;;9.63;5.65;;;17.10;98.10;;;;;;5067152;28;20112;-62
2022/10/04 13:40:24;;;;;;;12.30;5.60;;;17.00;97.50;;;;;;5088091;28;20392;-62
2022/10/04 13:43:22;;;;;;;11.48;5.10;;;17.00;98.40;;;;;;5065977;28;20039;-63
2022/10/04 13:46:14;;;;;;;8.43;5.20;;;17.00;98.40;;;;;;5073164;28;20336;-62
2022/10/04 13:48:56;;;;;;;13.20;5.00;;;17.00;99.10;;;;;;5058631;28;20052;-63
2022/10/04 13:51:36;;;;;;;10.32;5.85;;;17.00;99.60;;;;;;5082943;28;20399;-63